createdAt,value
2023-04-09T00:00:43.911Z,99.90
2023-04-09T00:03:10.793Z,99.90
2023-04-09T00:05:40.563Z,99.90
2023-04-09T00:08:07.454Z,99.90
2023-04-09T00:10:34.052Z,99.90
2023-04-09T00:13:00.552Z,99.90
2023-04-09T00:15:31.226Z,99.90
2023-04-09T00:17:59.159Z,99.90
2023-04-09T00:20:25.806Z,99.90
2023-04-09T00:22:52.459Z,99.90
2023-04-09T00:25:19.861Z,99.90
2023-04-09T00:27:46.971Z,99.90
2023-04-09T00:30:13.872Z,99.90
2023-04-09T00:35:18.458Z,99.90
2023-04-09T00:37:45.181Z,99.90
2023-04-09T00:40:11.761Z,99.90
2023-04-09T00:42:38.543Z,99.90
2023-04-09T00:45:06.058Z,99.90
2023-04-09T00:47:33.329Z,99.90
2023-04-09T00:50:00.555Z,99.90
2023-04-09T00:52:27.621Z,99.90
2023-04-09T00:54:54.709Z,99.90
2023-04-09T00:57:21.639Z,99.90
2023-04-09T00:59:48.161Z,99.90
2023-04-09T01:02:14.841Z,99.90
2023-04-09T01:04:42.101Z,99.90
2023-04-09T01:07:08.619Z,99.90
2023-04-09T01:09:43.492Z,99.90
2023-04-09T01:12:13.157Z,99.90
2023-04-09T01:14:51.279Z,99.90
2023-04-09T01:17:33.599Z,99.90
2023-04-09T01:20:05.293Z,99.90
2023-04-09T01:22:51.030Z,99.90
2023-04-09T01:25:43.729Z,99.90
2023-04-09T01:28:15.496Z,99.90
2023-04-09T01:30:43.515Z,99.90
2023-04-09T01:33:11.267Z,99.90
2023-04-09T01:35:38.324Z,99.90
2023-04-09T01:38:05.276Z,99.90
2023-04-09T01:40:31.935Z,99.90
2023-04-09T01:42:59.974Z,99.90
2023-04-09T01:45:26.826Z,99.90
2023-04-09T01:47:54.363Z,99.90
2023-04-09T01:50:21.030Z,99.90
2023-04-09T01:52:48.069Z,99.90
2023-04-09T01:55:14.604Z,99.90
2023-04-09T01:57:41.230Z,99.90
2023-04-09T02:00:09.301Z,99.90
2023-04-09T02:02:40.138Z,99.90
2023-04-09T02:05:09.012Z,99.90
2023-04-09T02:07:38.526Z,99.90
2023-04-09T02:10:06.613Z,99.90
2023-04-09T02:12:35.182Z,99.90
2023-04-09T02:17:31.242Z,99.90
2023-04-09T02:19:57.814Z,99.90
2023-04-09T02:22:24.454Z,99.90
2023-04-09T02:24:50.955Z,99.90
2023-04-09T02:27:17.585Z,99.90
2023-04-09T02:29:44.158Z,99.90
2023-04-09T02:32:10.662Z,99.90
2023-04-09T02:34:37.222Z,99.90
2023-04-09T02:37:03.793Z,99.90
2023-04-09T02:39:30.465Z,99.90
2023-04-09T02:41:57.912Z,99.90
2023-04-09T02:46:59.083Z,99.90
2023-04-09T02:49:25.672Z,99.90
2023-04-09T02:51:52.251Z,99.90
2023-04-09T02:54:18.832Z,99.90
2023-04-09T02:56:45.654Z,99.90
2023-04-09T02:59:12.214Z,99.90
2023-04-09T03:01:38.930Z,99.90
2023-04-09T03:04:05.739Z,99.90
2023-04-09T03:06:32.399Z,99.90
2023-04-09T03:08:58.928Z,99.90
2023-04-09T03:11:25.767Z,99.90
2023-04-09T03:13:52.329Z,99.90
2023-04-09T03:16:19.008Z,99.90
2023-04-09T03:18:45.664Z,99.90
2023-04-09T03:21:14.764Z,99.90
2023-04-09T03:23:41.568Z,99.90
2023-04-09T03:26:08.163Z,99.90
2023-04-09T03:28:34.671Z,99.90
2023-04-09T03:31:01.350Z,99.90
2023-04-09T03:33:27.934Z,99.90
2023-04-09T03:35:54.500Z,99.90
2023-04-09T03:38:21.186Z,99.90
2023-04-09T03:40:47.850Z,99.90
2023-04-09T03:43:14.358Z,99.90
2023-04-09T03:45:40.930Z,99.90
2023-04-09T03:48:07.429Z,99.90
2023-04-09T03:50:40.747Z,99.90
2023-04-09T03:53:07.266Z,99.90
2023-04-09T03:55:33.860Z,99.90
2023-04-09T03:58:00.534Z,99.90
2023-04-09T04:00:27.119Z,99.90
2023-04-09T04:02:53.839Z,99.90
2023-04-09T04:05:22.745Z,99.90
2023-04-09T04:07:49.284Z,99.90
2023-04-09T04:10:16.071Z,99.90
2023-04-09T04:12:42.617Z,99.90
2023-04-09T04:15:09.533Z,99.90
2023-04-09T04:17:36.036Z,99.90
2023-04-09T04:20:04.804Z,99.90
2023-04-09T04:22:31.352Z,99.90
2023-04-09T04:24:57.872Z,99.90
2023-04-09T04:27:24.476Z,99.90
2023-04-09T04:29:51.023Z,99.90
2023-04-09T04:32:17.488Z,99.90
2023-04-09T04:34:44.066Z,99.90
2023-04-09T04:37:13.161Z,99.90
2023-04-09T04:39:39.728Z,99.90
2023-04-09T04:42:06.301Z,99.90
2023-04-09T04:44:32.872Z,99.90
2023-04-09T04:46:59.475Z,99.90
2023-04-09T04:49:26.313Z,99.90
2023-04-09T04:51:55.268Z,99.90
2023-04-09T04:54:21.864Z,99.90
2023-04-09T04:56:48.378Z,99.90
2023-04-09T04:59:14.924Z,99.90
2023-04-09T05:01:41.549Z,99.90
2023-04-09T05:04:08.149Z,99.90
2023-04-09T05:06:34.760Z,99.90
2023-04-09T05:09:01.546Z,99.90
2023-04-09T05:11:28.356Z,99.90
2023-04-09T05:13:54.985Z,99.90
2023-04-09T05:16:22.108Z,99.90
2023-04-09T05:18:48.703Z,99.90
2023-04-09T05:21:15.409Z,99.90
2023-04-09T05:23:42.774Z,99.90
2023-04-09T05:26:09.328Z,99.90
2023-04-09T05:28:36.515Z,99.90
2023-04-09T05:31:03.240Z,99.90
2023-04-09T05:33:29.897Z,99.90
2023-04-09T05:35:56.514Z,99.90
2023-04-09T05:38:23.144Z,99.90
2023-04-09T05:40:49.782Z,99.90
2023-04-09T05:43:16.461Z,99.90
2023-04-09T05:45:43.128Z,99.90
2023-04-09T05:48:10.020Z,99.90
2023-04-09T05:50:47.460Z,99.90
2023-04-09T05:53:20.480Z,99.90
2023-04-09T05:55:49.094Z,99.90
2023-04-09T05:58:21.687Z,99.90
2023-04-09T06:00:48.282Z,99.90
2023-04-09T06:03:15.015Z,99.90
2023-04-09T06:05:41.746Z,99.90
2023-04-09T06:08:08.319Z,99.90
2023-04-09T06:10:42.215Z,99.90
2023-04-09T06:13:09.779Z,99.90
2023-04-09T06:15:37.601Z,99.90
2023-04-09T06:18:04.296Z,99.90
2023-04-09T06:20:31.424Z,99.90
2023-04-09T06:22:58.388Z,99.90
2023-04-09T06:25:24.992Z,99.90
2023-04-09T06:27:51.886Z,99.90
2023-04-09T06:30:18.522Z,99.90
2023-04-09T06:32:54.521Z,99.90
2023-04-09T06:35:22.141Z,99.90
2023-04-09T06:37:48.757Z,99.90
2023-04-09T06:40:15.563Z,99.90
2023-04-09T06:42:42.172Z,99.90
2023-04-09T06:45:09.034Z,99.90
2023-04-09T06:47:36.256Z,99.90
2023-04-09T06:50:03.102Z,99.90
2023-04-09T06:52:29.650Z,99.90
2023-04-09T06:54:56.155Z,99.90
2023-04-09T06:57:22.693Z,99.90
2023-04-09T06:59:49.228Z,99.90
2023-04-09T07:02:16.070Z,99.90
2023-04-09T07:04:42.819Z,99.90
2023-04-09T07:07:09.523Z,99.90
2023-04-09T07:09:36.463Z,99.90
2023-04-09T07:12:03.006Z,99.90
2023-04-09T07:14:29.561Z,99.90
2023-04-09T07:16:56.049Z,99.90
2023-04-09T07:19:22.597Z,99.90
2023-04-09T07:21:49.098Z,99.90
2023-04-09T07:24:15.809Z,99.90
2023-04-09T07:26:42.648Z,99.90
2023-04-09T07:29:09.287Z,99.90
2023-04-09T07:31:36.227Z,99.90
2023-04-09T07:34:03.012Z,99.90
2023-04-09T07:36:29.659Z,99.90
2023-04-09T07:38:56.251Z,99.90
2023-04-09T07:41:22.863Z,99.90
2023-04-09T07:43:49.413Z,99.90
2023-04-09T07:46:20.736Z,99.90
2023-04-09T07:48:48.490Z,99.90
2023-04-09T07:51:15.241Z,99.90
2023-04-09T07:53:41.885Z,99.90
2023-04-09T07:56:08.494Z,99.90
2023-04-09T07:58:36.159Z,99.90
2023-04-09T08:01:02.930Z,99.90
2023-04-09T08:03:29.819Z,99.90
2023-04-09T08:05:56.803Z,99.90
2023-04-09T08:08:23.347Z,99.90
2023-04-09T08:10:49.862Z,99.90
2023-04-09T08:13:16.906Z,99.90
2023-04-09T08:15:43.422Z,99.90
2023-04-09T08:18:10.088Z,99.90
2023-04-09T08:20:36.731Z,99.90
2023-04-09T08:23:04.531Z,99.90
2023-04-09T08:25:31.036Z,99.90
2023-04-09T08:27:58.131Z,99.90
2023-04-09T08:30:24.738Z,99.90
2023-04-09T08:32:51.407Z,99.90
2023-04-09T08:35:18.077Z,99.90
2023-04-09T08:37:44.640Z,99.90
2023-04-09T08:40:11.810Z,99.90
2023-04-09T08:42:44.571Z,99.90
2023-04-09T08:45:12.721Z,99.20
2023-04-09T08:47:41.640Z,99.60
2023-04-09T08:50:08.396Z,99.90
2023-04-09T08:52:35.236Z,99.90
2023-04-09T08:55:02.079Z,99.90
2023-04-09T08:57:28.662Z,99.40
2023-04-09T08:59:55.224Z,99.30
2023-04-09T09:02:24.141Z,98.70
2023-04-09T09:04:50.975Z,98.50
2023-04-09T09:07:17.766Z,97.50
2023-04-09T09:10:00.716Z,97.90
2023-04-09T09:12:34.518Z,98.00
2023-04-09T09:15:01.160Z,98.40
2023-04-09T09:17:28.637Z,95.60
2023-04-09T09:19:55.296Z,93.20
2023-04-09T09:22:21.891Z,87.40
2023-04-09T09:24:50.279Z,85.20
2023-04-09T09:27:33.283Z,83.80
2023-04-09T09:30:02.181Z,83.30
2023-04-09T09:32:28.840Z,79.80
2023-04-09T09:35:00.941Z,79.80
2023-04-09T09:37:30.925Z,74.80
2023-04-09T09:39:58.149Z,80.60
2023-04-09T09:42:24.811Z,78.10
2023-04-09T09:44:51.658Z,75.40
2023-04-09T09:47:19.784Z,79.30
2023-04-09T09:49:48.058Z,80.80
2023-04-09T09:52:15.381Z,81.30
2023-04-09T09:54:42.381Z,73.70
2023-04-09T09:57:14.931Z,74.60
2023-04-09T09:59:43.454Z,77.50
2023-04-09T10:02:31.359Z,75.50
2023-04-09T10:05:00.671Z,74.10
2023-04-09T10:07:27.661Z,73.90
2023-04-09T10:09:56.393Z,70.70
2023-04-09T10:12:23.881Z,75.30
2023-04-09T10:14:52.223Z,75.20
2023-04-09T10:17:19.736Z,73.00
2023-04-09T10:19:49.293Z,69.70
2023-04-09T10:22:18.200Z,67.70
2023-04-09T10:24:44.944Z,72.10
2023-04-09T10:27:15.113Z,70.90
2023-04-09T10:29:46.506Z,70.50
2023-04-09T10:32:17.580Z,70.20
2023-04-09T10:34:44.976Z,69.10
2023-04-09T10:37:22.404Z,73.00
2023-04-09T10:39:49.913Z,76.10
2023-04-09T10:42:43.219Z,81.00
2023-04-09T10:45:11.308Z,83.90
2023-04-09T10:47:39.196Z,86.50
2023-04-09T10:50:17.098Z,85.90
2023-04-09T10:52:44.337Z,85.60
2023-04-09T10:55:30.311Z,83.90
2023-04-09T10:57:57.558Z,77.90
2023-04-09T11:00:24.209Z,75.80
2023-04-09T11:03:04.327Z,78.20
2023-04-09T11:05:32.753Z,80.60
2023-04-09T11:08:03.734Z,76.70
2023-04-09T11:10:31.047Z,73.50
2023-04-09T11:12:57.689Z,77.40
2023-04-09T11:15:24.287Z,80.10
2023-04-09T11:17:50.942Z,80.00
2023-04-09T11:20:20.346Z,83.10
2023-04-09T11:22:47.363Z,80.30
2023-04-09T11:25:20.929Z,75.90
2023-04-09T11:27:47.960Z,76.10
2023-04-09T11:30:14.894Z,76.60
2023-04-09T11:32:41.586Z,74.10
2023-04-09T11:35:12.838Z,75.60
2023-04-09T11:37:39.557Z,79.50
2023-04-09T11:40:06.433Z,79.30
2023-04-09T11:42:32.986Z,77.30
2023-04-09T11:45:00.832Z,76.50
2023-04-09T11:47:27.611Z,78.70
2023-04-09T11:49:54.142Z,79.80
2023-04-09T11:52:20.715Z,80.20
2023-04-09T11:54:50.357Z,79.20
2023-04-09T11:57:17.100Z,79.70
2023-04-09T11:59:43.798Z,76.70
2023-04-09T12:02:10.451Z,75.20
2023-04-09T12:04:37.092Z,76.20
2023-04-09T12:07:07.848Z,77.30
2023-04-09T12:09:34.390Z,80.40
2023-04-09T12:12:02.117Z,74.20
2023-04-09T12:14:28.653Z,74.30
2023-04-09T12:16:55.305Z,73.90
2023-04-09T12:19:25.186Z,74.30
2023-04-09T12:21:54.539Z,71.70
2023-04-09T12:24:23.928Z,73.40
2023-04-09T12:26:50.574Z,74.60
2023-04-09T12:29:20.872Z,76.30
2023-04-09T12:31:47.512Z,71.80
2023-04-09T12:34:14.180Z,73.20
2023-04-09T12:36:43.893Z,71.50
2023-04-09T12:39:10.508Z,71.50
2023-04-09T12:41:37.259Z,73.00
2023-04-09T12:44:04.948Z,68.90
2023-04-09T12:46:32.515Z,69.40
2023-04-09T12:48:59.412Z,73.20
2023-04-09T12:51:26.107Z,75.50
2023-04-09T12:53:53.083Z,77.10
2023-04-09T12:56:20.221Z,75.90
2023-04-09T12:58:46.724Z,76.60
2023-04-09T13:01:13.477Z,79.20
2023-04-09T13:03:41.445Z,76.30
2023-04-09T13:06:08.670Z,77.20
2023-04-09T13:08:35.278Z,78.20
2023-04-09T13:11:01.856Z,78.30
2023-04-09T13:13:28.659Z,77.60
2023-04-09T13:15:55.401Z,76.30
2023-04-09T13:18:21.990Z,75.70
2023-04-09T13:20:48.588Z,76.50
2023-04-09T13:23:15.534Z,76.10
2023-04-09T13:25:42.260Z,75.10
2023-04-09T13:28:08.926Z,72.60
2023-04-09T13:30:35.751Z,70.70
2023-04-09T13:35:32.691Z,74.30
2023-04-09T13:37:59.271Z,73.50
2023-04-09T13:40:25.868Z,74.00
2023-04-09T13:42:52.460Z,73.40
2023-04-09T13:45:20.525Z,73.60
2023-04-09T13:47:47.068Z,70.90
2023-04-09T13:50:13.779Z,70.30
2023-04-09T13:52:40.395Z,70.60
2023-04-09T13:55:07.519Z,72.00
2023-04-09T13:57:35.293Z,71.40
2023-04-09T14:00:04.433Z,70.10
2023-04-09T14:02:31.506Z,70.60
2023-04-09T14:04:58.526Z,72.30
2023-04-09T14:07:25.307Z,69.20
2023-04-09T14:09:51.865Z,66.90
2023-04-09T14:12:18.440Z,69.30
2023-04-09T14:14:44.946Z,66.90
2023-04-09T14:17:11.482Z,66.60
2023-04-09T14:19:39.043Z,66.90
2023-04-09T14:22:07.333Z,66.60
2023-04-09T14:24:39.534Z,69.80
2023-04-09T14:27:07.616Z,70.00
2023-04-09T14:29:34.522Z,69.50
2023-04-09T14:32:01.320Z,71.80
2023-04-09T14:34:33.943Z,73.20
2023-04-09T14:37:00.674Z,70.90
2023-04-09T14:39:27.424Z,70.10
2023-04-09T14:41:55.124Z,70.20
2023-04-09T14:44:21.700Z,71.30
2023-04-09T14:46:48.440Z,71.70
2023-04-09T14:49:15.299Z,72.20
2023-04-09T14:51:41.874Z,70.90
2023-04-09T14:54:08.398Z,71.00
2023-04-09T14:56:47.240Z,73.10
2023-04-09T14:59:13.814Z,70.80
2023-04-09T15:01:40.542Z,71.00
2023-04-09T15:04:08.070Z,71.30
2023-04-09T15:06:34.693Z,71.50
2023-04-09T15:09:01.504Z,66.80
2023-04-09T15:11:28.873Z,65.50
2023-04-09T15:13:56.200Z,64.90
2023-04-09T15:16:27.124Z,64.40
2023-04-09T15:18:55.694Z,66.70
2023-04-09T15:21:22.609Z,67.80
2023-04-09T15:23:52.385Z,69.60
2023-04-09T15:26:19.478Z,66.90
2023-04-09T15:28:46.176Z,66.30
2023-04-09T15:31:13.027Z,63.10
2023-04-09T15:33:42.167Z,63.10
2023-04-09T15:36:08.861Z,63.30
2023-04-09T15:38:35.583Z,63.30
2023-04-09T15:41:02.116Z,64.10
2023-04-09T15:43:28.711Z,63.60
2023-04-09T15:45:55.389Z,63.40
2023-04-09T15:48:21.920Z,64.00
2023-04-09T15:50:48.503Z,62.40
2023-04-09T15:53:15.618Z,62.70
2023-04-09T15:55:42.561Z,62.50
2023-04-09T15:58:09.190Z,62.80
2023-04-09T16:00:35.847Z,63.90
2023-04-09T16:03:02.485Z,61.70
2023-04-09T16:05:29.109Z,61.60
2023-04-09T16:07:57.562Z,61.40
2023-04-09T16:10:25.990Z,62.20
2023-04-09T16:12:52.568Z,61.60
2023-04-09T16:15:19.174Z,61.70
2023-04-09T16:17:46.168Z,62.40
2023-04-09T16:20:12.836Z,62.20
2023-04-09T16:22:39.572Z,61.80
2023-04-09T16:25:06.533Z,62.20
2023-04-09T16:27:33.092Z,61.90
2023-04-09T16:30:00.344Z,61.70
2023-04-09T16:32:27.217Z,61.20
2023-04-09T16:34:53.809Z,62.40
2023-04-09T16:37:20.511Z,62.40
2023-04-09T16:39:47.106Z,62.30
2023-04-09T16:42:13.704Z,62.10
2023-04-09T16:44:40.320Z,62.30
2023-04-09T16:47:08.192Z,61.00
2023-04-09T16:49:34.798Z,62.90
2023-04-09T16:52:01.320Z,62.90
2023-04-09T16:54:28.053Z,61.70
2023-04-09T16:56:55.759Z,62.80
2023-04-09T16:59:22.496Z,63.10
2023-04-09T17:01:49.186Z,63.60
2023-04-09T17:04:16.176Z,63.40
2023-04-09T17:06:42.826Z,62.40
2023-04-09T17:09:09.402Z,62.30
2023-04-09T17:11:37.874Z,62.80
2023-04-09T17:14:04.520Z,63.50
2023-04-09T17:16:31.518Z,63.30
2023-04-09T17:18:58.313Z,64.70
2023-04-09T17:21:24.917Z,64.90
2023-04-09T17:23:51.475Z,65.50
2023-04-09T17:26:18.933Z,66.40
2023-04-09T17:28:46.685Z,66.50
2023-04-09T17:31:14.230Z,66.60
2023-04-09T17:33:42.189Z,67.00
2023-04-09T17:36:08.706Z,67.40
2023-04-09T17:38:35.363Z,67.90
2023-04-09T17:41:01.936Z,67.60
2023-04-09T17:43:28.426Z,69.30
2023-04-09T17:45:55.025Z,69.40
2023-04-09T17:48:21.877Z,70.70
2023-04-09T17:50:50.056Z,71.70
2023-04-09T17:53:16.649Z,72.20
2023-04-09T17:55:47.473Z,72.10
2023-04-09T17:58:14.664Z,72.80
2023-04-09T18:00:41.289Z,74.00
2023-04-09T18:03:07.974Z,73.90
2023-04-09T18:05:34.965Z,74.80
2023-04-09T18:08:04.594Z,75.20
2023-04-09T18:10:31.326Z,76.30
2023-04-09T18:12:57.980Z,76.60
2023-04-09T18:15:27.132Z,76.80
2023-04-09T18:17:53.735Z,77.70
2023-04-09T18:20:20.396Z,77.10
2023-04-09T18:22:46.992Z,77.90
2023-04-09T18:25:13.575Z,78.50
2023-04-09T18:27:40.343Z,79.20
2023-04-09T18:30:07.236Z,79.50
2023-04-09T18:32:33.802Z,79.50
2023-04-09T18:35:00.917Z,80.10
2023-04-09T18:37:27.710Z,80.90
2023-04-09T18:39:54.301Z,81.40
2023-04-09T18:42:20.886Z,81.40
2023-04-09T18:44:47.431Z,82.10
2023-04-09T18:47:14.441Z,82.30
2023-04-09T18:49:43.316Z,82.40
2023-04-09T18:52:10.217Z,83.20
2023-04-09T18:54:37.257Z,83.50
2023-04-09T18:57:04.294Z,83.90
2023-04-09T18:59:31.540Z,84.60
2023-04-09T19:01:58.578Z,84.70
2023-04-09T19:04:28.077Z,85.00
2023-04-09T19:06:54.791Z,85.30
2023-04-09T19:09:21.645Z,85.70
2023-04-09T19:11:48.295Z,86.30
2023-04-09T19:14:14.854Z,87.20
2023-04-09T19:16:41.762Z,87.70
2023-04-09T19:19:08.364Z,87.20
2023-04-09T19:21:35.882Z,88.00
2023-04-09T19:24:04.355Z,87.90
2023-04-09T19:26:32.501Z,88.40
2023-04-09T19:28:59.111Z,89.00
2023-04-09T19:31:25.806Z,88.90
2023-04-09T19:33:52.418Z,89.40
2023-04-09T19:36:18.955Z,90.10
2023-04-09T19:38:45.603Z,90.10
2023-04-09T19:41:12.146Z,90.30
2023-04-09T19:43:39.413Z,90.50
2023-04-09T19:46:07.214Z,90.60
2023-04-09T19:48:34.197Z,90.80
2023-04-09T19:51:01.924Z,91.00
2023-04-09T19:53:28.485Z,91.00
2023-04-09T19:55:54.989Z,90.90
2023-04-09T19:58:21.549Z,91.10
2023-04-09T20:00:48.148Z,91.20
2023-04-09T20:03:14.901Z,91.30
2023-04-09T20:05:41.596Z,91.60
2023-04-09T20:08:11.767Z,91.90
2023-04-09T20:10:42.599Z,92.00
2023-04-09T20:13:09.219Z,92.10
2023-04-09T20:15:35.797Z,92.50
2023-04-09T20:18:02.343Z,92.70
2023-04-09T20:20:28.993Z,93.00
2023-04-09T20:22:56.785Z,93.30
2023-04-09T20:25:23.893Z,93.60
2023-04-09T20:27:52.774Z,93.80
2023-04-09T20:30:19.695Z,94.10
2023-04-09T20:32:46.330Z,94.20
2023-04-09T20:35:14.399Z,94.40
2023-04-09T20:37:41.146Z,94.70
2023-04-09T20:40:07.870Z,94.90
2023-04-09T20:42:37.215Z,95.30
2023-04-09T20:45:04.213Z,95.40
2023-04-09T20:47:31.060Z,95.50
2023-04-09T20:49:59.828Z,95.80
2023-04-09T20:52:28.450Z,96.00
2023-04-09T20:54:56.794Z,96.30
2023-04-09T20:57:23.939Z,96.70
2023-04-09T20:59:50.774Z,96.90
2023-04-09T21:02:17.549Z,97.70
2023-04-09T21:04:44.229Z,98.30
2023-04-09T21:07:10.854Z,98.80
2023-04-09T21:09:38.095Z,99.00
2023-04-09T21:12:04.710Z,99.30
2023-04-09T21:14:31.492Z,99.50
2023-04-09T21:16:58.216Z,99.60
2023-04-09T21:19:24.892Z,99.90
2023-04-09T21:21:51.572Z,99.90
2023-04-09T21:24:18.360Z,99.90
2023-04-09T21:26:51.720Z,99.90
2023-04-09T21:29:20.198Z,99.90
2023-04-09T21:31:47.514Z,99.90
2023-04-09T21:34:14.008Z,99.90
2023-04-09T21:36:40.681Z,99.90
2023-04-09T21:39:07.681Z,99.90
2023-04-09T21:41:34.193Z,99.90
2023-04-09T21:44:07.742Z,99.90
2023-04-09T21:46:35.942Z,99.90
2023-04-09T21:49:02.962Z,99.90
2023-04-09T21:51:29.724Z,99.90
2023-04-09T21:54:03.486Z,99.90
2023-04-09T21:56:30.154Z,99.90
2023-04-09T21:58:56.746Z,99.90
2023-04-09T22:01:29.201Z,99.90
2023-04-09T22:04:00.134Z,99.90
2023-04-09T22:06:27.247Z,99.90
2023-04-09T22:08:56.685Z,99.90
2023-04-09T22:11:24.384Z,99.90
2023-04-09T22:13:50.861Z,99.90
2023-04-09T22:16:18.935Z,99.90
2023-04-09T22:18:45.619Z,99.90
2023-04-09T22:21:15.886Z,99.90
2023-04-09T22:23:42.684Z,99.90
2023-04-09T22:26:09.349Z,99.90
2023-04-09T22:28:35.896Z,99.90
2023-04-09T22:31:02.645Z,99.90
2023-04-09T22:33:29.374Z,99.90
2023-04-09T22:35:56.176Z,99.90
2023-04-09T22:38:22.837Z,99.90
2023-04-09T22:40:49.440Z,99.90
2023-04-09T22:43:17.100Z,99.90
2023-04-09T22:48:30.922Z,99.90
2023-04-09T22:50:58.665Z,99.90
2023-04-09T22:53:25.257Z,99.90
2023-04-09T22:55:51.962Z,99.90
2023-04-09T22:58:18.768Z,99.90
2023-04-09T23:00:45.606Z,99.90
2023-04-09T23:03:12.344Z,99.90
2023-04-09T23:05:39.550Z,99.90
2023-04-09T23:08:06.301Z,99.90
2023-04-09T23:10:33.419Z,99.90
2023-04-09T23:13:00.286Z,99.90
2023-04-09T23:15:27.090Z,99.90
2023-04-09T23:17:54.058Z,99.90
2023-04-09T23:20:20.754Z,99.90
2023-04-09T23:22:47.812Z,99.90
2023-04-09T23:25:14.937Z,99.90
2023-04-09T23:30:21.619Z,99.90
2023-04-09T23:32:48.476Z,99.90
2023-04-09T23:35:15.493Z,99.90
2023-04-09T23:37:44.884Z,99.90
2023-04-09T23:40:11.646Z,99.90
2023-04-09T23:42:38.224Z,99.90
2023-04-09T23:45:05.715Z,99.90
2023-04-09T23:47:33.248Z,99.90
2023-04-09T23:50:04.644Z,99.90
2023-04-09T23:52:32.375Z,99.90
2023-04-09T23:54:59.973Z,99.90
2023-04-09T23:57:27.404Z,99.90
2023-04-09T23:59:54.207Z,99.90
